Time;durP1;ratioP1;P1;durP2;ratioP2;P2;SDS_P1;SDS_P2;PMS_P1;PMS_P2;Temp;Humidity;BMP_temperature;BMP_pressure;BME280_temperature;BME280_humidity;BME280_pressure;Samples;Min_cycle;Max_cycle;Signal;HPM_P1;HPM_P2
2022/10/29 00:01:31;;;;;;;19.95;14.32;;;;;;;;;;5033950;28;20136;-60
2022/10/29 00:03:57;;;;;;;17.58;13.55;;;;;;;;;;5033689;28;20052;-60
2022/10/29 00:06:22;;;;;;;18.63;14.45;;;;;;;;;;5033919;28;20041;-60
2022/10/29 00:08:48;;;;;;;16.23;13.38;;;;;;;;;;5033856;28;20473;-60
2022/10/29 00:11:17;;;;;;;16.70;13.35;;;;;;;;;;5032342;28;20029;-60
2022/10/29 00:13:44;;;;;;;18.13;13.52;;;;;;;;;;5033768;28;20495;-60
2022/10/29 00:16:15;;;;;;;18.10;13.07;;;;;;;;;;5033705;28;20021;-60
2022/10/29 00:18:41;;;;;;;18.77;13.52;;;;;;;;;;5033446;28;20469;-60
2022/10/29 00:21:11;;;;;;;16.38;13.00;;;;;;;;;;5033383;28;20033;-60
2022/10/29 00:23:36;;;;;;;17.73;13.90;;;;;;;;;;5033430;28;20026;-60
2022/10/29 00:26:02;;;;;;;18.45;14.25;;;;;;;;;;5033451;28;20029;-61
2022/10/29 00:28:28;;;;;;;17.42;13.30;;;;;;;;;;5033552;28;20026;-60
2022/10/29 00:30:54;;;;;;;17.23;13.60;;;;;;;;;;5033231;28;20021;-60
2022/10/29 00:33:20;;;;;;;18.67;13.95;;;;;;;;;;5033115;28;20385;-60
2022/10/29 00:36:00;;;;;;;17.58;13.52;;;;;;;;;;5033086;28;20037;-60
2022/10/29 00:38:26;;;;;;;18.60;13.07;;;;;;;;;;5033397;28;20586;-60
2022/10/29 00:40:52;;;;;;;15.43;12.10;;;;;;;;;;5033019;28;20069;-60
2022/10/29 00:43:19;;;;;;;16.52;12.60;;;;;;;;;;5033300;28;20048;-59
2022/10/29 00:45:49;;;;;;;18.15;13.18;;;;;;;;;;5033083;28;20099;-59
2022/10/29 00:48:15;;;;;;;17.50;13.02;;;;;;;;;;5033185;28;20022;-60
2022/10/29 00:50:42;;;;;;;15.63;12.52;;;;;;;;;;5033109;28;20056;-60
2022/10/29 00:53:07;;;;;;;18.63;13.52;;;;;;;;;;5033112;28;20025;-59
2022/10/29 00:55:33;;;;;;;16.80;13.07;;;;;;;;;;5032608;28;20076;-60
2022/10/29 00:57:59;;;;;;;16.45;12.63;;;;;;;;;;5033008;28;20112;-60
2022/10/29 01:00:26;;;;;;;16.45;12.80;;;;;;;;;;5032634;28;20033;-60
2022/10/29 01:02:51;;;;;;;17.88;11.93;;;;;;;;;;5032957;28;20072;-60
2022/10/29 01:05:20;;;;;;;15.27;12.25;;;;;;;;;;5032869;28;20405;-69
2022/10/29 01:07:46;;;;;;;17.15;12.55;;;;;;;;;;5032450;28;20040;-63
2022/10/29 01:10:13;;;;;;;16.60;12.80;;;;;;;;;;5031867;28;20124;-69
2022/10/29 01:12:45;;;;;;;17.10;12.75;;;;;;;;;;5064997;28;20025;-63
2022/10/29 01:15:32;;;;;;;16.58;13.07;;;;;;;;;;5032517;28;20056;-68
2022/10/29 01:18:18;;;;;;;15.68;12.23;;;;;;;;;;5032519;28;20025;-69
2022/10/29 01:21:04;;;;;;;16.80;12.20;;;;;;;;;;5032487;28;20025;-60
2022/10/29 01:23:54;;;;;;;16.05;12.73;;;;;;;;;;5032490;28;20053;-60
2022/10/29 01:26:57;;;;;;;16.35;11.73;;;;;;;;;;5032409;28;20052;-60
2022/10/29 01:29:47;;;;;;;16.35;12.57;;;;;;;;;;5032447;28;20037;-60
2022/10/29 01:32:18;;;;;;;16.15;12.20;;;;;;;;;;5032388;28;20036;-60
2022/10/29 01:34:59;;;;;;;16.05;12.38;;;;;;;;;;5032437;28;20037;-60
2022/10/29 01:38:02;;;;;;;14.93;11.60;;;;;;;;;;5032620;28;20133;-60
2022/10/29 01:40:40;;;;;;;16.30;12.35;;;;;;;;;;5032305;28;20573;-61
2022/10/29 01:43:13;;;;;;;15.75;12.38;;;;;;;;;;5032571;28;20484;-60
2022/10/29 01:45:45;;;;;;;16.20;11.75;;;;;;;;;;5032214;28;20032;-60
2022/10/29 01:48:18;;;;;;;16.08;12.50;;;;;;;;;;5032200;28;20508;-60
2022/10/29 01:50:50;;;;;;;14.57;11.88;;;;;;;;;;5032255;28;20030;-61
2022/10/29 01:53:16;;;;;;;15.60;12.00;;;;;;;;;;5032348;28;20041;-61
2022/10/29 01:55:42;;;;;;;13.82;11.13;;;;;;;;;;5032092;28;20042;-60
2022/10/29 01:58:08;;;;;;;15.45;12.02;;;;;;;;;;5032098;28;20388;-60
2022/10/29 02:01:04;;;;;;;15.60;11.48;;;;;;;;;;5032276;28;20048;-60
2022/10/29 02:03:40;;;;;;;14.60;11.48;;;;;;;;;;5039179;28;20033;-60
2022/10/29 02:06:24;;;;;;;14.80;11.57;;;;;;;;;;5032019;28;20132;-60
2022/10/29 02:09:05;;;;;;;14.18;11.10;;;;;;;;;;5032216;28;20038;-61
2022/10/29 02:11:50;;;;;;;14.88;11.18;;;;;;;;;;5032095;28;20401;-60
2022/10/29 02:14:32;;;;;;;14.82;11.70;;;;;;;;;;5032002;28;20025;-60
2022/10/29 02:16:59;;;;;;;15.05;11.35;;;;;;;;;;5031896;28;20508;-60
2022/10/29 02:19:36;;;;;;;14.93;11.98;;;;;;;;;;5032227;28;20022;-60
2022/10/29 02:22:01;;;;;;;14.20;11.80;;;;;;;;;;5035898;28;20104;-60
2022/10/29 02:24:27;;;;;;;15.43;11.27;;;;;;;;;;5035807;28;20443;-60
2022/10/29 02:26:53;;;;;;;12.80;10.40;;;;;;;;;;5035835;28;20100;-60
2022/10/29 02:29:18;;;;;;;14.13;11.70;;;;;;;;;;5035758;28;20457;-60
2022/10/29 02:31:44;;;;;;;13.52;11.20;;;;;;;;;;5035436;28;20025;-60
2022/10/29 02:34:09;;;;;;;13.27;10.77;;;;;;;;;;5035751;28;20049;-60
2022/10/29 02:36:35;;;;;;;14.57;11.20;;;;;;;;;;5035361;28;20033;-60
2022/10/29 02:39:00;;;;;;;14.82;12.00;;;;;;;;;;5035668;28;20519;-60
2022/10/29 02:41:26;;;;;;;14.15;11.18;;;;;;;;;;5035232;28;20485;-60
2022/10/29 02:43:51;;;;;;;13.98;11.20;;;;;;;;;;5035544;28;20057;-60
2022/10/29 02:46:20;;;;;;;14.82;11.45;;;;;;;;;;5035121;28;20493;-60
2022/10/29 02:48:46;;;;;;;12.55;10.68;;;;;;;;;;5035445;28;20037;-60
2022/10/29 02:51:12;;;;;;;13.60;10.98;;;;;;;;;;5035133;28;20488;-60
2022/10/29 02:53:38;;;;;;;13.93;10.70;;;;;;;;;;5035376;28;20057;-60
2022/10/29 02:56:04;;;;;;;14.35;11.25;;;;;;;;;;5034696;28;20076;-60
2022/10/29 02:58:30;;;;;;;15.82;11.70;;;;;;;;;;5035306;28;20052;-60
2022/10/29 03:00:56;;;;;;;14.23;10.77;;;;;;;;;;5034899;28;20350;-60
2022/10/29 03:03:22;;;;;;;13.10;10.90;;;;;;;;;;5034921;28;20025;-60
2022/10/29 03:05:48;;;;;;;12.85;11.05;;;;;;;;;;5034703;28;20052;-60
2022/10/29 03:08:13;;;;;;;14.07;10.80;;;;;;;;;;5034797;28;20049;-61
2022/10/29 03:10:38;;;;;;;13.07;10.65;;;;;;;;;;5034671;28;20025;-61
2022/10/29 03:13:04;;;;;;;14.52;10.90;;;;;;;;;;5035000;28;20034;-61
2022/10/29 03:15:29;;;;;;;13.32;10.55;;;;;;;;;;5034934;28;20160;-60
2022/10/29 03:17:55;;;;;;;13.77;10.73;;;;;;;;;;5034949;28;20029;-61
2022/10/29 03:20:20;;;;;;;12.13;10.50;;;;;;;;;;5034507;28;20432;-60
2022/10/29 03:22:46;;;;;;;13.48;10.30;;;;;;;;;;5034760;28;20021;-61
2022/10/29 03:25:11;;;;;;;12.85;10.38;;;;;;;;;;5066440;28;20485;-60
2022/10/29 03:27:41;;;;;;;13.13;10.52;;;;;;;;;;5034509;28;20087;-60
2022/10/29 03:30:09;;;;;;;13.82;10.38;;;;;;;;;;5034422;28;20017;-60
2022/10/29 03:32:38;;;;;;;12.57;10.35;;;;;;;;;;5033745;28;20091;-60
2022/10/29 03:35:04;;;;;;;12.95;9.85;;;;;;;;;;5034601;28;20099;-61
2022/10/29 03:37:29;;;;;;;14.35;10.43;;;;;;;;;;5034534;28;20029;-60
2022/10/29 03:39:58;;;;;;;12.73;10.32;;;;;;;;;;5034219;28;20064;-60
2022/10/29 03:42:23;;;;;;;13.63;10.70;;;;;;;;;;5034423;28;20037;-60
2022/10/29 03:44:49;;;;;;;13.70;11.10;;;;;;;;;;5034337;28;20461;-60
2022/10/29 03:47:14;;;;;;;14.23;10.38;;;;;;;;;;5034369;28;20079;-60
2022/10/29 03:49:40;;;;;;;12.90;10.63;;;;;;;;;;5034043;28;20034;-60
2022/10/29 03:52:05;;;;;;;12.23;10.73;;;;;;;;;;5033998;28;20033;-60
2022/10/29 03:54:31;;;;;;;12.35;10.18;;;;;;;;;;5034194;28;20037;-60
2022/10/29 03:56:56;;;;;;;12.43;10.15;;;;;;;;;;5033671;28;20037;-60
2022/10/29 03:59:22;;;;;;;11.68;9.65;;;;;;;;;;5033868;28;20021;-60
2022/10/29 04:01:47;;;;;;;15.48;11.05;;;;;;;;;;5033679;28;20033;-60
2022/10/29 04:04:13;;;;;;;14.95;10.88;;;;;;;;;;5033961;28;20060;-60
2022/10/29 04:06:39;;;;;;;13.23;10.30;;;;;;;;;;5033665;28;20108;-60
2022/10/29 04:09:05;;;;;;;11.90;10.02;;;;;;;;;;5065663;28;20097;-60
2022/10/29 04:11:30;;;;;;;13.52;10.50;;;;;;;;;;5033530;28;20025;-60
2022/10/29 04:13:56;;;;;;;13.02;10.32;;;;;;;;;;5033505;28;20030;-62
2022/10/29 04:16:21;;;;;;;12.88;10.45;;;;;;;;;;5033714;28;20021;-60
2022/10/29 04:18:48;;;;;;;12.00;10.35;;;;;;;;;;5033489;28;20021;-60
2022/10/29 04:21:14;;;;;;;12.85;10.50;;;;;;;;;;5033643;28;20068;-60
2022/10/29 04:23:40;;;;;;;14.48;10.35;;;;;;;;;;5033356;28;20029;-60
2022/10/29 04:26:05;;;;;;;11.55;9.75;;;;;;;;;;5033219;28;20033;-60
2022/10/29 04:28:31;;;;;;;13.43;10.77;;;;;;;;;;5033272;28;20064;-60
2022/10/29 04:30:56;;;;;;;13.13;10.20;;;;;;;;;;5033232;28;20026;-60
2022/10/29 04:33:22;;;;;;;11.88;9.90;;;;;;;;;;5033454;28;20443;-61
2022/10/29 04:35:52;;;;;;;14.25;10.63;;;;;;;;;;5033366;28;20163;-61
2022/10/29 04:38:17;;;;;;;;;;;;;;;;;;5033531;28;20029;-68
2022/10/29 04:40:43;;;;;;;12.60;10.43;;;;;;;;;;5032980;28;19913;-69
2022/10/29 04:43:08;;;;;;;12.85;10.10;;;;;;;;;;5033240;28;20037;-64
2022/10/29 04:45:34;;;;;;;12.80;9.98;;;;;;;;;;5032917;28;20032;-61
2022/10/29 04:48:00;;;;;;;14.20;10.55;;;;;;;;;;5033140;28;20029;-67
2022/10/29 04:50:27;;;;;;;14.07;10.43;;;;;;;;;;5033122;28;20048;-65
2022/10/29 04:52:56;;;;;;;13.50;10.63;;;;;;;;;;5032784;28;20030;-70
2022/10/29 04:55:21;;;;;;;13.93;10.80;;;;;;;;;;5032877;28;20112;-64
2022/10/29 04:57:50;;;;;;;13.38;10.40;;;;;;;;;;5032826;28;20593;-63
2022/10/29 05:00:16;;;;;;;12.75;10.35;;;;;;;;;;5032884;28;20064;-70
2022/10/29 05:02:41;;;;;;;14.23;11.23;;;;;;;;;;5032452;28;20674;-66
2022/10/29 05:05:07;;;;;;;14.25;10.52;;;;;;;;;;5034671;28;20511;-62
2022/10/29 05:07:33;;;;;;;13.82;10.10;;;;;;;;;;5032766;28;20477;-64
2022/10/29 05:09:58;;;;;;;13.15;10.32;;;;;;;;;;5033142;28;20057;-65
2022/10/29 05:12:24;;;;;;;14.15;10.50;;;;;;;;;;5033578;28;20491;-69
2022/10/29 05:14:49;;;;;;;13.82;10.60;;;;;;;;;;5033200;28;20071;-66
2022/10/29 05:17:15;;;;;;;13.65;10.02;;;;;;;;;;5032639;28;20591;-65
2022/10/29 05:19:41;;;;;;;12.80;9.63;;;;;;;;;;5064588;28;20032;-64
2022/10/29 05:22:06;;;;;;;15.10;10.18;;;;;;;;;;5033277;28;20114;-63
2022/10/29 05:24:32;;;;;;;13.15;10.07;;;;;;;;;;5033338;28;20021;-64
2022/10/29 05:26:58;;;;;;;12.52;10.05;;;;;;;;;;5032893;28;20029;-66
2022/10/29 05:29:23;;;;;;;13.13;9.23;;;;;;;;;;5032561;28;20068;-64
2022/10/29 05:31:52;;;;;;;13.40;9.88;;;;;;;;;;5032440;28;20032;-64
2022/10/29 05:34:19;;;;;;;13.50;10.18;;;;;;;;;;5031200;28;20091;-65
2022/10/29 05:36:44;;;;;;;12.18;10.15;;;;;;;;;;5032766;28;20025;-61
2022/10/29 05:39:10;;;;;;;13.88;10.25;;;;;;;;;;5032690;28;20091;-65
2022/10/29 05:41:36;;;;;;;12.10;10.02;;;;;;;;;;5064964;28;20033;-61
2022/10/29 05:44:01;;;;;;;12.32;10.25;;;;;;;;;;5033008;28;20026;-62
2022/10/29 05:46:27;;;;;;;12.10;9.30;;;;;;;;;;5032291;28;20534;-66
2022/10/29 05:48:52;;;;;;;12.60;9.65;;;;;;;;;;5031071;28;20080;-60
2022/10/29 05:51:18;;;;;;;12.00;9.80;;;;;;;;;;5032240;28;20109;-61
2022/10/29 05:53:44;;;;;;;13.32;10.15;;;;;;;;;;5032507;28;20083;-66
2022/10/29 05:56:09;;;;;;;14.98;10.70;;;;;;;;;;5035365;28;20045;-63
2022/10/29 05:58:35;;;;;;;13.40;10.38;;;;;;;;;;5041160;28;20025;-65
2022/10/29 06:01:05;;;;;;;17.17;11.32;;;;;;;;;;5044207;28;20033;-61
2022/10/29 06:03:30;;;;;;;13.40;10.60;;;;;;;;;;5048788;28;20055;-60
2022/10/29 06:05:57;;;;;;;12.43;9.93;;;;;;;;;;5046739;28;20037;-60
2022/10/29 06:08:22;;;;;;;14.57;10.68;;;;;;;;;;5042316;28;20527;-60
2022/10/29 06:10:48;;;;;;;14.85;10.55;;;;;;;;;;5039197;28;20041;-67
2022/10/29 06:13:22;;;;;;;14.00;10.82;;;;;;;;;;5047375;28;20029;-68
2022/10/29 06:15:49;;;;;;;14.60;10.55;;;;;;;;;;5036100;28;20029;-59
2022/10/29 06:18:15;;;;;;;13.88;10.63;;;;;;;;;;5035998;28;20045;-67
2022/10/29 06:20:42;;;;;;;14.35;10.75;;;;;;;;;;5034368;28;20057;-63
2022/10/29 06:23:09;;;;;;;15.70;10.57;;;;;;;;;;5035565;28;20030;-64
2022/10/29 06:25:34;;;;;;;13.05;10.10;;;;;;;;;;5039002;28;20116;-59
2022/10/29 06:28:02;;;;;;;14.07;10.70;;;;;;;;;;5055324;28;20125;-60
2022/10/29 06:30:30;;;;;;;13.50;10.25;;;;;;;;;;5055241;28;20025;-59
2022/10/29 06:32:56;;;;;;;12.70;10.02;;;;;;;;;;5053590;28;20029;-59
2022/10/29 06:35:21;;;;;;;16.65;11.15;;;;;;;;;;5054964;28;20025;-60
2022/10/29 06:37:47;;;;;;;13.35;10.15;;;;;;;;;;5054880;28;20387;-60
2022/10/29 06:40:12;;;;;;;14.85;10.93;;;;;;;;;;5055114;28;20024;-61
2022/10/29 06:42:38;;;;;;;15.88;10.77;;;;;;;;;;5053561;28;20017;-60
2022/10/29 06:45:04;;;;;;;13.80;10.30;;;;;;;;;;5053404;28;20025;-59
2022/10/29 06:47:29;;;;;;;14.70;10.00;;;;;;;;;;5053168;28;20032;-59
2022/10/29 06:49:55;;;;;;;16.80;11.25;;;;;;;;;;5055052;28;20062;-60
2022/10/29 06:52:21;;;;;;;17.60;11.10;;;;;;;;;;5053885;28;20025;-59
2022/10/29 06:54:47;;;;;;;16.77;11.20;;;;;;;;;;5055220;28;20384;-59
2022/10/29 06:57:13;;;;;;;15.18;11.00;;;;;;;;;;5058651;28;20053;-59
2022/10/29 06:59:38;;;;;;;15.25;11.00;;;;;;;;;;5060513;28;20074;-62
2022/10/29 07:02:04;;;;;;;14.32;10.77;;;;;;;;;;5054868;28;20033;-60
2022/10/29 07:04:29;;;;;;;15.13;10.60;;;;;;;;;;5054742;28;20013;-61
2022/10/29 07:06:55;;;;;;;17.15;11.50;;;;;;;;;;5054534;28;20051;-63
2022/10/29 07:09:22;;;;;;;15.50;10.93;;;;;;;;;;5063452;28;20043;-60
2022/10/29 07:11:48;;;;;;;15.82;11.27;;;;;;;;;;5062448;28;20025;-59
2022/10/29 07:14:17;;;;;;;16.52;10.50;;;;;;;;;;5059042;28;20028;-60
2022/10/29 07:16:42;;;;;;;14.38;10.75;;;;;;;;;;5054739;28;20025;-61
2022/10/29 07:19:09;;;;;;;15.88;11.40;;;;;;;;;;5061331;28;20031;-58
2022/10/29 07:21:36;;;;;;;15.23;10.48;;;;;;;;;;5058831;28;20060;-59
2022/10/29 07:24:01;;;;;;;14.95;10.75;;;;;;;;;;5054911;28;20377;-61
2022/10/29 07:26:27;;;;;;;16.95;11.63;;;;;;;;;;5054339;28;20032;-61
2022/10/29 07:28:57;;;;;;;14.98;11.15;;;;;;;;;;5063375;28;20021;-59
2022/10/29 07:31:27;;;;;;;16.30;10.90;;;;;;;;;;5055872;28;20377;-59
2022/10/29 07:33:57;;;;;;;18.08;12.18;;;;;;;;;;5056017;28;20029;-62
2022/10/29 07:36:22;;;;;;;18.50;12.05;;;;;;;;;;5055261;28;20134;-60
2022/10/29 07:38:48;;;;;;;16.48;10.77;;;;;;;;;;5038463;28;20120;-60
2022/10/29 07:41:14;;;;;;;17.73;12.07;;;;;;;;;;5029722;28;20139;-61
2022/10/29 07:43:39;;;;;;;17.40;11.85;;;;;;;;;;5027884;28;20018;-60
2022/10/29 07:46:05;;;;;;;15.93;10.95;;;;;;;;;;5027900;28;20025;-60
2022/10/29 07:48:31;;;;;;;16.23;11.65;;;;;;;;;;5028877;28;20095;-61
2022/10/29 07:51:02;;;;;;;17.35;11.20;;;;;;;;;;5056351;28;20101;-65
2022/10/29 07:53:30;;;;;;;19.20;12.27;;;;;;;;;;5030097;28;20057;-62
2022/10/29 07:55:56;;;;;;;18.20;11.88;;;;;;;;;;5031387;28;20043;-60
2022/10/29 07:58:24;;;;;;;21.52;12.50;;;;;;;;;;5030431;28;20022;-63
2022/10/29 08:00:51;;;;;;;17.85;12.55;;;;;;;;;;5030259;28;20493;-59
2022/10/29 08:03:17;;;;;;;18.27;12.52;;;;;;;;;;5033784;28;20057;-63
2022/10/29 08:05:46;;;;;;;19.23;12.45;;;;;;;;;;5031177;28;20072;-63
2022/10/29 08:08:11;;;;;;;18.60;12.98;;;;;;;;;;5057995;28;20060;-62
2022/10/29 08:10:37;;;;;;;21.15;13.73;;;;;;;;;;5031485;28;20025;-59
2022/10/29 08:13:04;;;;;;;20.58;14.25;;;;;;;;;;5031167;28;20032;-65
2022/10/29 08:15:31;;;;;;;26.70;17.25;;;;;;;;;;5032675;28;20017;-69
2022/10/29 08:17:58;;;;;;;28.95;17.67;;;;;;;;;;5033135;28;20029;-60
2022/10/29 08:20:26;;;;;;;26.20;17.05;;;;;;;;;;5029092;28;20080;-59
2022/10/29 08:22:53;;;;;;;32.25;17.70;;;;;;;;;;5028279;28;20438;-60
2022/10/29 08:25:22;;;;;;;25.55;17.13;;;;;;;;;;5031674;28;20029;-59
2022/10/29 08:28:01;;;;;;;32.05;19.23;;;;;;;;;;5031413;28;20105;-58
2022/10/29 08:30:27;;;;;;;32.80;18.85;;;;;;;;;;5028422;28;20847;-57
2022/10/29 08:32:52;;;;;;;32.75;19.52;;;;;;;;;;5032954;28;20080;-55
2022/10/29 08:35:18;;;;;;;29.33;18.05;;;;;;;;;;5033140;28;20029;-56
2022/10/29 08:37:44;;;;;;;32.53;19.85;;;;;;;;;;5027807;28;20037;-60
2022/10/29 08:40:20;;;;;;;34.67;19.45;;;;;;;;;;5013578;28;20498;-57
2022/10/29 08:43:14;;;;;;;33.78;19.08;;;;;;;;;;5013420;28;20088;-56
2022/10/29 08:45:46;;;;;;;26.45;17.25;;;;;;;;;;5028227;28;20072;-60
2022/10/29 08:48:40;;;;;;;35.50;19.52;;;;;;;;;;5013207;28;20033;-56
2022/10/29 08:51:21;;;;;;;32.65;19.38;;;;;;;;;;5013410;28;20820;-59
2022/10/29 08:53:49;;;;;;;35.10;20.50;;;;;;;;;;5013520;28;20026;-58
2022/10/29 08:56:28;;;;;;;33.20;20.20;;;;;;;;;;5012923;28;20046;-56
2022/10/29 08:59:02;;;;;;;32.10;19.70;;;;;;;;;;5013088;28;20046;-56
2022/10/29 09:01:28;;;;;;;36.33;20.80;;;;;;;;;;5018257;28;20118;-56
2022/10/29 09:03:54;;;;;;;37.25;20.63;;;;;;;;;;5033024;28;20029;-53
2022/10/29 09:06:43;;;;;;;33.00;20.65;;;;;;;;;;5031464;28;20036;-61
2022/10/29 09:09:47;;;;;;;39.67;20.75;;;;;;;;;;5032963;28;20064;-60
2022/10/29 09:12:32;;;;;;;36.85;20.63;;;;;;;;;;5031548;28;20413;-55
2022/10/29 09:15:28;;;;;;;36.92;21.33;;;;;;;;;;5012841;28;20025;-55
2022/10/29 09:18:05;;;;;;;40.08;22.73;;;;;;;;;;5013506;28;20719;-56
2022/10/29 09:20:51;;;;;;;37.75;21.95;;;;;;;;;;5016519;28;20034;-60
2022/10/29 09:23:28;;;;;;;34.50;21.63;;;;;;;;;;5045472;28;20482;-60
2022/10/29 09:26:04;;;;;;;35.25;21.20;;;;;;;;;;5012901;28;20041;-55
2022/10/29 09:28:42;;;;;;;37.50;22.45;;;;;;;;;;5013082;28;20109;-60
2022/10/29 09:31:29;;;;;;;38.35;22.40;;;;;;;;;;5014666;28;20022;-62
2022/10/29 09:34:00;;;;;;;38.10;21.25;;;;;;;;;;5030562;28;20034;-65
2022/10/29 09:36:26;;;;;;;37.72;21.77;;;;;;;;;;5032215;28;20041;-61
2022/10/29 09:39:03;;;;;;;37.15;22.00;;;;;;;;;;5032512;28;20033;-59
2022/10/29 09:41:32;;;;;;;37.25;22.30;;;;;;;;;;5031498;28;20029;-59
2022/10/29 09:44:08;;;;;;;39.95;21.98;;;;;;;;;;5062852;28;20072;-65
2022/10/29 09:47:00;;;;;;;42.00;23.38;;;;;;;;;;5031126;28;20051;-63
2022/10/29 09:49:51;;;;;;;42.70;23.48;;;;;;;;;;5028885;28;20033;-67
2022/10/29 09:52:28;;;;;;;40.05;22.33;;;;;;;;;;5030317;28;20034;-67
2022/10/29 09:54:54;;;;;;;37.67;22.50;;;;;;;;;;5030361;28;20047;-62
2022/10/29 09:57:25;;;;;;;39.42;23.05;;;;;;;;;;5030047;28;20560;-61
2022/10/29 09:59:56;;;;;;;39.97;22.48;;;;;;;;;;5062345;28;20057;-66
2022/10/29 10:02:36;;;;;;;35.95;22.25;;;;;;;;;;5061975;28;20134;-60
2022/10/29 10:05:22;;;;;;;38.92;22.52;;;;;;;;;;5030075;28;20129;-58
2022/10/29 10:08:05;;;;;;;40.65;21.67;;;;;;;;;;5030236;28;20034;-57
2022/10/29 10:10:32;;;;;;;36.85;22.13;;;;;;;;;;5030333;28;20030;-63
2022/10/29 10:13:04;;;;;;;37.75;22.13;;;;;;;;;;5030446;28;20086;-61
2022/10/29 10:15:33;;;;;;;38.17;22.23;;;;;;;;;;5030158;28;20064;-63
2022/10/29 10:18:15;;;;;;;34.55;21.75;;;;;;;;;;5038030;28;20115;-58
2022/10/29 10:20:44;;;;;;;39.50;22.17;;;;;;;;;;5037992;28;20052;-58
2022/10/29 10:23:22;;;;;;;38.45;21.30;;;;;;;;;;5038498;28;20017;-58
2022/10/29 10:25:48;;;;;;;36.50;22.02;;;;;;;;;;5038603;28;20032;-59
2022/10/29 10:28:25;;;;;;;34.15;21.05;;;;;;;;;;5036131;28;20049;-59
2022/10/29 10:31:02;;;;;;;35.80;21.08;;;;;;;;;;5040690;28;20028;-64
2022/10/29 10:33:29;;;;;;;34.47;21.10;;;;;;;;;;5042725;28;20033;-59
2022/10/29 10:36:01;;;;;;;34.28;20.88;;;;;;;;;;5030019;28;20033;-69
2022/10/29 10:38:26;;;;;;;35.78;20.45;;;;;;;;;;5030353;28;20044;-60
2022/10/29 10:40:59;;;;;;;32.85;20.83;;;;;;;;;;5029799;28;20022;-62
2022/10/29 10:43:27;;;;;;;36.05;20.55;;;;;;;;;;5030212;28;20472;-59
2022/10/29 10:45:58;;;;;;;33.20;19.83;;;;;;;;;;5030749;28;20140;-68
2022/10/29 10:48:27;;;;;;;31.48;20.27;;;;;;;;;;5032950;28;20075;-59
2022/10/29 10:51:21;;;;;;;34.13;20.48;;;;;;;;;;5033529;28;20084;-58
2022/10/29 10:53:47;;;;;;;33.47;20.40;;;;;;;;;;5032781;28;20038;-59
2022/10/29 10:56:21;;;;;;;29.92;19.00;;;;;;;;;;5032800;28;20041;-59
2022/10/29 10:59:11;;;;;;;30.92;20.23;;;;;;;;;;5033360;28;20109;-58
2022/10/29 11:01:42;;;;;;;31.35;19.35;;;;;;;;;;5032982;28;20578;-59
2022/10/29 11:04:39;;;;;;;29.52;19.05;;;;;;;;;;5063856;28;20041;-58
2022/10/29 11:07:10;;;;;;;30.95;18.98;;;;;;;;;;5032873;28;20440;-58
2022/10/29 11:09:42;;;;;;;33.15;20.23;;;;;;;;;;5033164;28;20048;-59
2022/10/29 11:12:26;;;;;;;27.42;18.63;;;;;;;;;;5033396;28;20029;-58
2022/10/29 11:15:28;;;;;;;29.27;19.25;;;;;;;;;;5033255;28;20035;-58
2022/10/29 11:18:05;;;;;;;27.63;18.40;;;;;;;;;;5033063;28;20507;-58
2022/10/29 11:20:34;;;;;;;29.70;19.00;;;;;;;;;;5032656;28;20113;-68
2022/10/29 11:23:37;;;;;;;29.90;19.60;;;;;;;;;;5033082;28;20036;-58
2022/10/29 11:26:12;;;;;;;30.80;19.60;;;;;;;;;;5033021;28;20333;-58
2022/10/29 11:29:02;;;;;;;27.60;18.73;;;;;;;;;;5032780;28;20025;-58
2022/10/29 11:31:54;;;;;;;27.95;17.98;;;;;;;;;;5032648;28;20481;-58
2022/10/29 11:34:25;;;;;;;30.30;18.88;;;;;;;;;;5039188;28;20029;-58
2022/10/29 11:37:11;;;;;;;27.90;18.48;;;;;;;;;;5032511;28;20017;-58
2022/10/29 11:39:43;;;;;;;29.80;18.88;;;;;;;;;;5032499;28;20481;-58
2022/10/29 11:42:08;;;;;;;30.17;19.02;;;;;;;;;;5032443;28;20148;-58
2022/10/29 11:44:37;;;;;;;28.65;18.25;;;;;;;;;;5033068;28;20120;-58
2022/10/29 11:47:18;;;;;;;26.10;18.08;;;;;;;;;;5032310;28;20033;-58
2022/10/29 11:50:24;;;;;;;28.50;18.20;;;;;;;;;;5032374;28;20026;-58
2022/10/29 11:53:10;;;;;;;26.98;17.35;;;;;;;;;;5032091;28;20025;-58
2022/10/29 11:55:54;;;;;;;26.05;17.48;;;;;;;;;;5030953;28;20049;-58
2022/10/29 11:58:32;;;;;;;26.48;17.50;;;;;;;;;;5032295;28;20029;-60
2022/10/29 12:01:15;;;;;;;27.10;18.40;;;;;;;;;;5032548;28;20465;-58
2022/10/29 12:04:00;;;;;;;26.83;17.65;;;;;;;;;;5062063;28;20128;-69
2022/10/29 12:06:34;;;;;;;24.27;17.25;;;;;;;;;;5032073;28;20033;-68
2022/10/29 12:09:15;;;;;;;26.58;17.38;;;;;;;;;;5032339;28;20417;-61
2022/10/29 12:11:50;;;;;;;24.67;16.67;;;;;;;;;;5032545;28;20079;-59
2022/10/29 12:14:22;;;;;;;21.73;15.90;;;;;;;;;;5032248;28;20041;-58
2022/10/29 12:17:15;;;;;;;24.00;16.35;;;;;;;;;;5031832;28;20028;-65
2022/10/29 12:19:59;;;;;;;25.15;17.23;;;;;;;;;;5031566;28;20114;-58
2022/10/29 12:22:47;;;;;;;25.02;17.15;;;;;;;;;;5031824;28;20021;-59
2022/10/29 12:25:27;;;;;;;25.67;16.98;;;;;;;;;;5034137;28;20432;-58
2022/10/29 12:28:17;;;;;;;25.45;17.48;;;;;;;;;;5038512;28;20034;-59
2022/10/29 12:31:09;;;;;;;28.90;18.88;;;;;;;;;;5012239;28;20064;-65
2022/10/29 12:34:07;;;;;;;22.15;17.30;;;;;;;;;;5014724;28;20444;-63
2022/10/29 12:36:49;;;;;;;23.33;15.68;;;;;;;;;;5031099;28;20032;-58
2022/10/29 12:39:28;;;;;;;21.25;15.38;;;;;;;;;;5051772;28;20100;-58
2022/10/29 12:41:59;;;;;;;23.13;15.70;;;;;;;;;;5051718;28;20067;-66
2022/10/29 12:44:50;;;;;;;23.48;16.25;;;;;;;;;;5048373;28;20191;-64
2022/10/29 12:47:34;;;;;;;22.60;16.20;;;;;;;;;;5048137;28;20048;-58
2022/10/29 12:50:14;;;;;;;21.40;15.60;;;;;;;;;;5050763;28;20516;-59
2022/10/29 12:53:11;;;;;;;24.92;16.98;;;;;;;;;;5030600;28;20045;-67
2022/10/29 12:55:38;;;;;;;22.38;16.33;;;;;;;;;;5031203;28;20056;-60
2022/10/29 12:58:41;;;;;;;22.70;17.05;;;;;;;;;;5034524;28;20560;-62
2022/10/29 13:01:30;;;;;;;23.42;16.08;;;;;;;;;;5030273;28;20047;-62
2022/10/29 13:03:56;;;;;;;22.35;15.38;;;;;;;;;;5034917;28;20026;-72
2022/10/29 13:06:40;;;;;;;21.10;15.80;;;;;;;;;;5038491;28;20142;-62
2022/10/29 13:09:29;;;;;;;22.85;17.10;;;;;;;;;;5036593;28;20120;-58
2022/10/29 13:12:05;;;;;;;24.58;16.95;;;;;;;;;;5050721;28;20112;-58
2022/10/29 13:14:53;;;;;;;23.13;16.95;;;;;;;;;;5049974;28;20029;-58
2022/10/29 13:17:24;;;;;;;22.40;16.90;;;;;;;;;;5015583;28;20038;-60
2022/10/29 13:20:20;;;;;;;22.35;16.65;;;;;;;;;;5031467;28;20079;-60
2022/10/29 13:22:56;;;;;;;19.50;15.50;;;;;;;;;;5048597;28;20040;-58
2022/10/29 13:25:43;;;;;;;24.38;18.15;;;;;;;;;;5044987;28;20380;-59
2022/10/29 13:28:12;;;;;;;21.30;16.15;;;;;;;;;;5050794;28;20484;-64
2022/10/29 13:30:39;;;;;;;23.23;17.30;;;;;;;;;;5048111;28;20028;-59
2022/10/29 13:33:26;;;;;;;27.40;18.13;;;;;;;;;;5043669;28;20029;-64
2022/10/29 13:36:00;;;;;;;28.35;20.05;;;;;;;;;;5012449;28;20014;-59
2022/10/29 13:38:38;;;;;;;22.20;17.73;;;;;;;;;;5044731;28;20030;-59
2022/10/29 13:41:09;;;;;;;23.45;16.88;;;;;;;;;;5052475;28;20033;-62
2022/10/29 13:43:35;;;;;;;20.77;15.85;;;;;;;;;;5052337;28;20432;-59
2022/10/29 13:46:17;;;;;;;23.30;16.83;;;;;;;;;;5052357;28;20108;-59
2022/10/29 13:48:44;;;;;;;25.88;19.27;;;;;;;;;;5052468;28;20112;-59
2022/10/29 13:51:15;;;;;;;25.75;18.42;;;;;;;;;;5052073;28;20472;-59
2022/10/29 13:53:55;;;;;;;23.95;17.80;;;;;;;;;;5052092;28;20025;-60
2022/10/29 13:56:47;;;;;;;21.92;17.52;;;;;;;;;;5033216;28;20489;-59
2022/10/29 13:59:20;;;;;;;21.95;16.70;;;;;;;;;;5028993;28;20072;-59
2022/10/29 14:02:01;;;;;;;23.05;17.08;;;;;;;;;;5045451;28;20025;-59
2022/10/29 14:04:35;;;;;;;24.00;17.30;;;;;;;;;;5052421;28;20381;-60
2022/10/29 14:07:09;;;;;;;22.60;17.15;;;;;;;;;;5035617;28;20466;-59
2022/10/29 14:09:49;;;;;;;20.50;16.10;;;;;;;;;;5032066;28;20029;-60
2022/10/29 14:12:20;;;;;;;21.77;17.60;;;;;;;;;;5031965;28;20036;-59
2022/10/29 14:14:57;;;;;;;24.58;17.50;;;;;;;;;;5033988;28;20521;-59
2022/10/29 14:17:23;;;;;;;24.90;17.08;;;;;;;;;;5038614;28;20155;-59
2022/10/29 14:19:51;;;;;;;20.92;16.20;;;;;;;;;;5033500;28;20104;-59
2022/10/29 14:22:32;;;;;;;21.52;17.38;;;;;;;;;;5045750;28;20537;-60
2022/10/29 14:24:58;;;;;;;19.88;15.52;;;;;;;;;;5054190;28;20063;-63
2022/10/29 14:27:24;;;;;;;19.23;15.43;;;;;;;;;;5053919;28;20430;-59
2022/10/29 14:29:49;;;;;;;19.83;15.90;;;;;;;;;;5054200;28;20168;-59
2022/10/29 14:32:19;;;;;;;24.02;17.48;;;;;;;;;;5053828;28;20025;-59
2022/10/29 14:34:50;;;;;;;24.13;18.58;;;;;;;;;;5054194;28;20404;-59
2022/10/29 14:37:36;;;;;;;20.80;16.63;;;;;;;;;;5053899;28;20048;-59
2022/10/29 14:40:05;;;;;;;24.00;18.30;;;;;;;;;;5050549;28;20033;-59
2022/10/29 14:42:39;;;;;;;23.83;18.08;;;;;;;;;;5053963;28;20052;-59
2022/10/29 14:45:29;;;;;;;25.25;18.23;;;;;;;;;;5053577;28;20037;-58
2022/10/29 14:47:57;;;;;;;23.73;17.52;;;;;;;;;;5053625;28;20067;-60